createdAt,value
2022-09-02T00:02:22.402Z,12.12
2022-09-02T00:05:08.818Z,12.04
2022-09-02T00:07:55.501Z,12.04
2022-09-02T00:10:43.807Z,12.17
2022-09-02T00:13:30.321Z,11.90
2022-09-02T00:16:17.423Z,12.06
2022-09-02T00:19:04.672Z,12.01
2022-09-02T00:21:52.939Z,11.98
2022-09-02T00:24:40.149Z,11.79
2022-09-02T00:27:26.638Z,11.73
2022-09-02T00:30:13.822Z,11.87
2022-09-02T00:33:00.156Z,11.68
2022-09-02T00:35:46.933Z,11.60
2022-09-02T00:38:35.454Z,11.85
2022-09-02T00:41:25.165Z,11.70
2022-09-02T00:44:15.293Z,11.60
2022-09-02T00:47:03.251Z,11.60
2022-09-02T00:49:53.787Z,11.48
2022-09-02T00:53:08.377Z,11.49
2022-09-02T00:55:54.898Z,11.58
2022-09-02T00:58:43.336Z,11.50
2022-09-02T01:01:30.155Z,11.65
2022-09-02T01:04:17.169Z,11.50
2022-09-02T01:07:04.485Z,11.44
2022-09-02T01:09:51.300Z,11.42
2022-09-02T01:12:38.033Z,11.44
2022-09-02T01:15:25.893Z,11.51
2022-09-02T01:18:18.037Z,11.38
2022-09-02T01:21:04.863Z,11.33
2022-09-02T01:23:54.236Z,11.44
2022-09-02T01:26:40.953Z,11.26
2022-09-02T01:29:28.661Z,11.42
2022-09-02T01:32:14.915Z,11.20
2022-09-02T01:35:01.897Z,11.05
2022-09-02T01:37:55.500Z,11.32
2022-09-02T01:40:43.047Z,11.13
2022-09-02T01:43:29.926Z,11.13
2022-09-02T01:46:16.649Z,11.02
2022-09-02T01:49:04.529Z,11.09
2022-09-02T01:51:54.603Z,11.12
2022-09-02T01:54:44.458Z,10.87
2022-09-02T01:57:31.225Z,10.84
2022-09-02T02:00:18.733Z,10.97
2022-09-02T02:03:05.366Z,10.68
2022-09-02T02:05:52.553Z,10.77
2022-09-02T02:08:40.795Z,10.63
2022-09-02T02:11:27.408Z,10.68
2022-09-02T02:14:17.993Z,10.61
2022-09-02T02:17:07.110Z,10.61
2022-09-02T02:19:53.560Z,10.68
2022-09-02T02:22:40.112Z,10.59
2022-09-02T02:25:27.125Z,10.76
2022-09-02T02:28:14.672Z,10.58
2022-09-02T02:31:02.164Z,10.59
2022-09-02T02:33:49.290Z,10.69
2022-09-02T02:36:37.997Z,10.56
2022-09-02T02:39:24.303Z,10.39
2022-09-02T02:42:13.346Z,10.59
2022-09-02T02:45:01.366Z,10.36
2022-09-02T02:47:48.174Z,10.33
2022-09-02T02:50:35.952Z,10.24
2022-09-02T02:53:22.943Z,10.32
2022-09-02T02:56:09.873Z,10.30
2022-09-02T02:59:01.294Z,10.40
2022-09-02T03:01:48.026Z,10.19
2022-09-02T03:04:35.574Z,10.13
2022-09-02T03:07:22.378Z,10.12
2022-09-02T03:10:10.821Z,10.28
2022-09-02T03:13:00.370Z,10.26
2022-09-02T03:15:47.942Z,10.23
2022-09-02T03:18:35.075Z,9.97
2022-09-02T03:21:22.577Z,9.95
2022-09-02T03:24:11.588Z,10.18
2022-09-02T03:26:58.388Z,10.02
2022-09-02T03:29:45.010Z,9.98
2022-09-02T03:32:32.599Z,10.09
2022-09-02T03:35:21.351Z,9.91
2022-09-02T03:38:09.147Z,9.85
2022-09-02T03:40:55.737Z,9.80
2022-09-02T03:43:44.126Z,9.81
2022-09-02T03:46:31.208Z,9.84
2022-09-02T03:49:17.749Z,9.83
2022-09-02T03:52:04.551Z,9.56
2022-09-02T03:54:51.328Z,9.58
2022-09-02T03:57:38.226Z,9.66
2022-09-02T04:00:29.950Z,9.57
2022-09-02T04:03:20.161Z,9.62
2022-09-02T04:06:11.892Z,9.67
2022-09-02T04:08:59.975Z,9.59
2022-09-02T04:11:46.566Z,9.63
2022-09-02T04:14:33.602Z,9.64
2022-09-02T04:17:20.227Z,9.54
2022-09-02T04:20:09.410Z,9.68
2022-09-02T04:22:56.681Z,9.52
2022-09-02T04:25:44.725Z,9.77
2022-09-02T04:28:32.356Z,9.44
2022-09-02T04:31:21.966Z,9.62
2022-09-02T04:34:10.353Z,9.65
2022-09-02T04:36:56.929Z,9.39
2022-09-02T04:39:43.724Z,9.46
2022-09-02T04:42:31.056Z,9.43
2022-09-02T04:45:17.373Z,9.46
2022-09-02T04:48:04.098Z,9.61
2022-09-02T04:50:50.750Z,9.61
2022-09-02T04:53:40.933Z,9.61
2022-09-02T04:56:29.575Z,9.63
2022-09-02T04:59:17.979Z,9.51
2022-09-02T05:02:12.653Z,9.48
2022-09-02T05:05:00.300Z,9.45
2022-09-02T05:07:49.882Z,9.56
2022-09-02T05:10:40.194Z,9.66
2022-09-02T05:13:26.295Z,9.61
2022-09-02T05:16:16.012Z,9.82
2022-09-02T05:19:06.161Z,10.00
2022-09-02T05:21:59.208Z,9.82
2022-09-02T05:24:51.366Z,10.07
2022-09-02T05:27:39.144Z,10.14
2022-09-02T05:30:27.337Z,9.99
2022-09-02T05:33:15.135Z,10.15
2022-09-02T05:36:04.674Z,10.19
2022-09-02T05:38:51.973Z,10.33
2022-09-02T05:41:38.836Z,10.34
2022-09-02T05:44:27.135Z,10.52
2022-09-02T05:47:14.403Z,10.75
2022-09-02T05:50:03.965Z,10.73
2022-09-02T05:52:55.523Z,10.71
2022-09-02T05:55:43.943Z,11.01
2022-09-02T05:58:32.243Z,11.17
2022-09-02T06:01:19.724Z,11.20
2022-09-02T06:04:07.250Z,11.32
2022-09-02T06:06:54.919Z,11.41
2022-09-02T06:09:44.540Z,11.80
2022-09-02T06:12:31.121Z,11.87
2022-09-02T06:15:18.437Z,12.05
2022-09-02T06:18:04.857Z,12.33
2022-09-02T06:20:52.502Z,12.36
2022-09-02T06:23:39.641Z,12.57
2022-09-02T06:26:28.115Z,12.70
2022-09-02T06:29:15.902Z,12.84
2022-09-02T06:32:03.202Z,13.06
2022-09-02T06:34:49.875Z,12.91
2022-09-02T06:37:36.435Z,13.05
2022-09-02T06:40:23.669Z,12.99
2022-09-02T06:43:10.390Z,13.10
2022-09-02T06:46:33.123Z,13.26
2022-09-02T06:49:23.578Z,13.37
2022-09-02T06:52:13.667Z,13.22
2022-09-02T06:55:01.786Z,13.52
2022-09-02T06:57:48.313Z,13.61
2022-09-02T07:00:36.941Z,13.63
2022-09-02T07:03:42.837Z,13.84
2022-09-02T07:06:36.145Z,13.83
2022-09-02T07:09:31.074Z,14.07
2022-09-02T07:12:22.614Z,14.11
2022-09-02T07:15:16.847Z,14.36
2022-09-02T07:18:04.560Z,14.14
2022-09-02T07:20:56.454Z,14.74
2022-09-02T07:23:43.193Z,14.73
2022-09-02T07:26:30.310Z,14.98
2022-09-02T07:29:17.729Z,15.18
2022-09-02T07:32:06.028Z,15.20
2022-09-02T07:34:52.346Z,15.14
2022-09-02T07:37:39.050Z,15.61
2022-09-02T07:40:28.013Z,15.56
2022-09-02T07:43:14.810Z,15.58
2022-09-02T07:46:03.127Z,15.80
2022-09-02T07:48:50.187Z,16.08
2022-09-02T07:51:40.788Z,16.32
2022-09-02T07:54:28.514Z,16.47
2022-09-02T07:57:16.043Z,16.52
2022-09-02T08:00:05.080Z,16.91
2022-09-02T08:03:00.950Z,16.97
2022-09-02T08:05:53.814Z,17.21
2022-09-02T08:08:41.385Z,17.10
2022-09-02T08:11:28.583Z,17.13
2022-09-02T08:14:24.085Z,17.46
2022-09-02T08:17:11.657Z,17.50
2022-09-02T08:19:58.567Z,17.53
2022-09-02T08:22:48.961Z,17.88
2022-09-02T08:25:43.179Z,17.79
2022-09-02T08:28:31.999Z,17.89
2022-09-02T08:31:18.582Z,17.82
2022-09-02T08:34:05.201Z,18.08
2022-09-02T08:36:54.216Z,18.10
2022-09-02T08:39:43.054Z,18.04
2022-09-02T08:42:32.265Z,18.35
2022-09-02T08:45:28.869Z,18.41
2022-09-02T08:48:20.637Z,18.45
2022-09-02T08:51:18.257Z,18.62
2022-09-02T08:54:19.685Z,18.98
2022-09-02T08:57:06.322Z,18.92
2022-09-02T08:59:56.073Z,19.17
2022-09-02T09:03:19.890Z,19.27
2022-09-02T09:06:14.762Z,19.42
2022-09-02T09:09:29.046Z,19.37
2022-09-02T09:12:36.565Z,19.62
2022-09-02T09:15:41.885Z,19.74
2022-09-02T09:18:40.555Z,19.75
2022-09-02T09:21:29.332Z,19.65
2022-09-02T09:24:30.205Z,20.11
2022-09-02T09:27:21.967Z,20.30
2022-09-02T09:30:14.852Z,20.42
2022-09-02T09:33:02.669Z,20.56
2022-09-02T09:35:54.547Z,20.65
2022-09-02T09:38:41.086Z,20.44
2022-09-02T09:41:29.014Z,20.54
2022-09-02T09:44:38.381Z,20.79
2022-09-02T09:47:26.493Z,20.70
2022-09-02T09:50:17.250Z,20.72
2022-09-02T09:53:25.078Z,20.89
2022-09-02T09:56:14.598Z,21.06
2022-09-02T09:59:01.097Z,20.91
2022-09-02T10:01:52.024Z,21.11
2022-09-02T10:04:43.156Z,20.95
2022-09-02T10:07:45.252Z,21.29
2022-09-02T10:10:33.642Z,21.28
2022-09-02T10:13:28.606Z,21.05
2022-09-02T10:16:18.109Z,21.39
2022-09-02T10:19:10.142Z,21.42
2022-09-02T10:22:04.134Z,21.39
2022-09-02T10:25:09.745Z,21.41
2022-09-02T10:28:37.083Z,21.48
2022-09-02T10:31:23.680Z,21.57
2022-09-02T10:34:34.406Z,21.52
2022-09-02T10:37:25.858Z,21.78
2022-09-02T10:40:15.394Z,21.83
2022-09-02T10:43:07.851Z,21.72
2022-09-02T10:45:59.523Z,21.62
2022-09-02T10:48:52.218Z,21.76
2022-09-02T10:51:57.262Z,21.97
2022-09-02T10:54:49.525Z,22.02
2022-09-02T10:57:47.859Z,22.05
2022-09-02T11:00:40.384Z,22.15
2022-09-02T11:03:38.354Z,22.14
2022-09-02T11:06:40.327Z,22.26
2022-09-02T11:09:40.409Z,22.41
2022-09-02T11:12:34.448Z,22.02
2022-09-02T11:15:31.531Z,22.42
2022-09-02T11:18:35.603Z,22.26
2022-09-02T11:21:49.508Z,22.37
2022-09-02T11:24:56.770Z,22.42
2022-09-02T11:28:15.685Z,22.55
2022-09-02T11:31:29.784Z,22.56
2022-09-02T11:34:34.927Z,22.49
2022-09-02T11:37:39.461Z,22.81
2022-09-02T11:40:38.789Z,22.85
2022-09-02T11:43:44.725Z,22.88
2022-09-02T11:46:37.403Z,23.14
2022-09-02T11:49:48.366Z,23.21
2022-09-02T11:52:53.146Z,23.21
2022-09-02T11:55:43.544Z,23.17
2022-09-02T11:58:42.403Z,23.12
2022-09-02T12:01:47.398Z,23.11
2022-09-02T12:04:59.251Z,23.36
2022-09-02T12:07:48.812Z,23.33
2022-09-02T12:10:45.100Z,23.42
2022-09-02T12:13:41.018Z,23.44
2022-09-02T12:16:30.666Z,23.63
2022-09-02T12:19:27.721Z,23.52
2022-09-02T12:22:17.263Z,23.56
2022-09-02T12:25:05.765Z,23.49
2022-09-02T12:28:25.072Z,23.80
2022-09-02T12:31:38.406Z,23.82
2022-09-02T12:34:24.713Z,24.11
2022-09-02T12:37:49.449Z,24.13
2022-09-02T12:40:55.985Z,24.18
2022-09-02T12:43:44.539Z,24.33
2022-09-02T12:46:36.980Z,24.51
2022-09-02T12:49:40.893Z,24.35
2022-09-02T12:52:42.378Z,24.39
2022-09-02T12:55:31.506Z,24.40
2022-09-02T12:58:22.723Z,24.23
2022-09-02T13:01:24.790Z,24.48
2022-09-02T13:04:28.043Z,24.14
2022-09-02T13:07:46.540Z,24.49
2022-09-02T13:11:07.291Z,24.58
2022-09-02T13:14:23.294Z,24.67
2022-09-02T13:17:35.718Z,24.77
2022-09-02T13:20:55.769Z,24.94
2022-09-02T13:24:11.475Z,24.93
2022-09-02T13:27:28.932Z,25.21
2022-09-02T13:30:38.127Z,25.24
2022-09-02T13:33:26.694Z,25.16
2022-09-02T13:36:26.425Z,25.05
2022-09-02T13:39:18.081Z,25.18
2022-09-02T13:42:18.425Z,25.11
2022-09-02T13:45:18.653Z,25.00
2022-09-02T13:48:32.729Z,25.08
2022-09-02T13:51:19.073Z,24.56
2022-09-02T13:54:22.590Z,24.62
2022-09-02T13:57:13.914Z,24.71
2022-09-02T14:00:00.423Z,24.41
2022-09-02T14:02:57.856Z,24.41
2022-09-02T14:05:47.718Z,24.47
2022-09-02T14:08:34.186Z,24.47
2022-09-02T14:11:21.241Z,24.28
2022-09-02T14:14:13.428Z,24.29
2022-09-02T14:17:21.771Z,24.42
2022-09-02T14:20:09.067Z,24.40
2022-09-02T14:22:57.349Z,24.29
2022-09-02T14:25:51.385Z,24.35
2022-09-02T14:28:37.823Z,24.21
2022-09-02T14:31:30.493Z,24.16
2022-09-02T14:34:37.290Z,24.18
2022-09-02T14:37:31.016Z,24.18
2022-09-02T14:40:19.594Z,24.35
2022-09-02T14:43:14.051Z,24.30
2022-09-02T14:46:07.479Z,24.16
2022-09-02T14:48:59.316Z,24.00
2022-09-02T14:51:48.986Z,24.04
2022-09-02T14:54:35.251Z,24.25
2022-09-02T14:57:33.500Z,24.18
2022-09-02T15:00:21.434Z,24.04
2022-09-02T15:03:07.805Z,23.98
2022-09-02T15:05:54.412Z,24.00
2022-09-02T15:08:40.634Z,24.09
2022-09-02T15:11:27.956Z,24.14
2022-09-02T15:14:14.180Z,24.13
2022-09-02T15:17:00.661Z,24.15
2022-09-02T15:19:47.712Z,23.93
2022-09-02T15:22:33.758Z,23.91
2022-09-02T15:25:20.749Z,23.91
2022-09-02T15:28:07.235Z,23.73
2022-09-02T15:31:00.679Z,23.67
2022-09-02T15:33:51.670Z,23.56
2022-09-02T15:36:38.589Z,23.72
2022-09-02T15:39:25.967Z,23.70
2022-09-02T15:42:12.517Z,23.43
2022-09-02T15:44:58.616Z,23.64
2022-09-02T15:47:45.082Z,23.59
2022-09-02T15:50:32.281Z,23.31
2022-09-02T15:53:20.622Z,23.18
2022-09-02T15:56:28.826Z,23.35
2022-09-02T15:59:17.943Z,23.30
2022-09-02T16:02:04.627Z,23.04
2022-09-02T16:04:51.494Z,23.15
2022-09-02T16:07:37.914Z,23.10
2022-09-02T16:10:24.561Z,22.97
2022-09-02T16:13:10.802Z,22.95
2022-09-02T16:16:02.467Z,22.83
2022-09-02T16:18:53.753Z,22.81
2022-09-02T16:21:41.139Z,22.58
2022-09-02T16:24:27.385Z,22.53
2022-09-02T16:27:13.756Z,22.29
2022-09-02T16:30:00.065Z,22.50
2022-09-02T16:32:47.619Z,22.36
2022-09-02T16:35:34.358Z,22.26
2022-09-02T16:38:20.799Z,22.10
2022-09-02T16:41:07.206Z,22.32
2022-09-02T16:43:56.881Z,22.28
2022-09-02T16:46:45.251Z,22.00
2022-09-02T16:49:31.918Z,22.07
2022-09-02T16:52:18.613Z,22.04
2022-09-02T16:55:05.441Z,22.03
2022-09-02T16:57:51.741Z,22.07
2022-09-02T17:00:41.169Z,21.99
2022-09-02T17:03:27.727Z,21.92
2022-09-02T17:06:15.059Z,22.04
2022-09-02T17:09:01.667Z,21.99
2022-09-02T17:11:47.920Z,21.93
2022-09-02T17:14:34.320Z,21.79
2022-09-02T17:17:20.516Z,21.75
2022-09-02T17:20:07.346Z,21.86
2022-09-02T17:22:53.693Z,21.73
2022-09-02T17:25:39.806Z,21.71
2022-09-02T17:28:27.056Z,21.66
2022-09-02T17:31:28.293Z,21.43
2022-09-02T17:34:15.289Z,21.37
2022-09-02T17:37:02.558Z,21.22
2022-09-02T17:39:49.953Z,21.12
2022-09-02T17:42:36.188Z,20.87
2022-09-02T17:45:22.990Z,20.92
2022-09-02T17:48:34.311Z,20.83
2022-09-02T17:51:16.321Z,20.79
2022-09-02T17:54:09.557Z,20.70
2022-09-02T17:57:25.386Z,20.54
2022-09-02T18:00:14.782Z,20.40
2022-09-02T18:03:42.585Z,20.22
2022-09-02T18:06:36.101Z,20.06
2022-09-02T18:09:23.349Z,20.01
2022-09-02T18:12:12.374Z,19.76
2022-09-02T18:14:59.718Z,19.95
2022-09-02T18:17:49.578Z,19.66
2022-09-02T18:20:40.673Z,19.78
2022-09-02T18:24:00.152Z,19.60
2022-09-02T18:27:11.506Z,19.57
2022-09-02T18:30:08.609Z,19.47
2022-09-02T18:33:06.945Z,19.39
2022-09-02T18:36:02.262Z,19.28
2022-09-02T18:39:18.978Z,19.25
2022-09-02T18:42:37.722Z,18.91
2022-09-02T18:45:31.391Z,19.06
2022-09-02T18:48:21.048Z,19.02
2022-09-02T18:51:15.296Z,18.86
2022-09-02T18:54:09.243Z,18.77
2022-09-02T18:56:58.594Z,18.81
2022-09-02T19:00:09.346Z,18.76
2022-09-02T19:03:05.141Z,18.62
2022-09-02T19:05:51.446Z,18.49
2022-09-02T19:08:38.194Z,18.50
2022-09-02T19:11:25.864Z,18.46
2022-09-02T19:14:28.995Z,18.34
2022-09-02T19:17:17.183Z,18.42
2022-09-02T19:20:07.938Z,18.33
2022-09-02T19:22:58.553Z,18.15
2022-09-02T19:25:45.144Z,18.24
2022-09-02T19:28:31.492Z,18.10
2022-09-02T19:31:21.809Z,17.99
2022-09-02T19:34:08.574Z,18.00
2022-09-02T19:36:55.837Z,17.98
2022-09-02T19:39:42.657Z,17.97
2022-09-02T19:42:29.103Z,17.96
2022-09-02T19:45:16.552Z,18.07
2022-09-02T19:48:07.954Z,18.02
2022-09-02T19:50:55.142Z,17.94
2022-09-02T19:53:42.627Z,18.09
2022-09-02T19:56:29.811Z,18.02
2022-09-02T19:59:17.069Z,17.82
2022-09-02T20:02:04.614Z,17.90
2022-09-02T20:04:51.219Z,17.67
2022-09-02T20:07:37.678Z,17.74
2022-09-02T20:10:28.168Z,17.79
2022-09-02T20:13:16.473Z,17.55
2022-09-02T20:16:05.489Z,17.78
2022-09-02T20:18:53.685Z,17.67
2022-09-02T20:21:46.164Z,17.74
2022-09-02T20:24:34.490Z,17.53
2022-09-02T20:27:26.992Z,17.66
2022-09-02T20:30:16.410Z,17.46
2022-09-02T20:33:16.474Z,17.39
2022-09-02T20:36:23.226Z,17.45
2022-09-02T20:39:34.278Z,17.63
2022-09-02T20:42:26.725Z,17.80
2022-09-02T20:45:22.414Z,17.75
2022-09-02T20:48:27.977Z,17.74
2022-09-02T20:51:30.220Z,17.83
2022-09-02T20:54:39.185Z,17.69
2022-09-02T20:57:31.662Z,17.57
2022-09-02T21:00:20.586Z,17.35
2022-09-02T21:03:12.077Z,17.32
2022-09-02T21:06:02.094Z,17.37
2022-09-02T21:09:00.389Z,17.25
2022-09-02T21:11:54.261Z,17.17
2022-09-02T21:15:04.241Z,17.13
2022-09-02T21:17:56.689Z,17.12
2022-09-02T21:21:03.166Z,17.04
2022-09-02T21:24:08.317Z,17.08
2022-09-02T21:27:05.948Z,17.06
2022-09-02T21:30:20.495Z,17.20
2022-09-02T21:33:10.424Z,17.18
2022-09-02T21:35:59.938Z,17.13
2022-09-02T21:38:46.425Z,17.05
2022-09-02T21:41:45.942Z,17.05
2022-09-02T21:44:38.230Z,17.01
2022-09-02T21:47:40.251Z,16.76
2022-09-02T21:51:07.531Z,16.81
2022-09-02T21:54:24.976Z,16.69
2022-09-02T21:57:29.528Z,16.67
2022-09-02T22:00:17.281Z,16.36
2022-09-02T22:03:21.917Z,16.52
2022-09-02T22:06:30.390Z,16.36
2022-09-02T22:09:25.406Z,16.21
2022-09-02T22:12:14.482Z,16.11
2022-09-02T22:15:11.943Z,15.93
2022-09-02T22:18:15.249Z,16.12
2022-09-02T22:21:09.773Z,16.00
2022-09-02T22:23:57.110Z,16.00
2022-09-02T22:27:09.290Z,15.97
2022-09-02T22:30:11.518Z,16.08
2022-09-02T22:33:08.053Z,16.02
2022-09-02T22:36:07.569Z,16.21
2022-09-02T22:38:56.061Z,15.97
2022-09-02T22:41:53.790Z,16.10
2022-09-02T22:45:25.240Z,16.06
2022-09-02T22:48:39.511Z,16.02
2022-09-02T22:51:55.371Z,15.89
2022-09-02T22:54:42.821Z,15.90
2022-09-02T22:57:32.572Z,15.85
2022-09-02T23:00:22.922Z,15.73
2022-09-02T23:03:20.663Z,15.51
2022-09-02T23:06:26.331Z,15.77
2022-09-02T23:09:14.678Z,15.57
2022-09-02T23:12:25.055Z,15.68
2022-09-02T23:15:29.874Z,15.62
2022-09-02T23:18:36.941Z,15.61
2022-09-02T23:21:45.210Z,15.53
2022-09-02T23:25:01.421Z,15.57
2022-09-02T23:28:01.373Z,15.35
2022-09-02T23:31:05.984Z,15.50
2022-09-02T23:34:10.669Z,15.48
2022-09-02T23:37:26.859Z,15.49
2022-09-02T23:40:37.658Z,15.47
2022-09-02T23:43:23.942Z,15.48
2022-09-02T23:46:38.171Z,15.46
2022-09-02T23:49:31.392Z,15.46
2022-09-02T23:52:26.325Z,15.50
2022-09-02T23:55:24.079Z,15.38
2022-09-02T23:58:31.217Z,15.54
